createdAt,value
2019-04-21T00:00:32.483Z,13.90
2019-04-21T00:01:35.633Z,15.90
2019-04-21T00:02:35.770Z,12.60
2019-04-21T00:03:40.205Z,10.30
2019-04-21T00:04:48.341Z,12.10
2019-04-21T00:05:53.312Z,11.90
2019-04-21T00:06:56.877Z,18.20
2019-04-21T00:07:52.788Z,15.10
2019-04-21T00:08:57.955Z,12.90
2019-04-21T00:09:53.749Z,12.60
2019-04-21T00:11:01.130Z,11.80
2019-04-21T00:11:55.617Z,11.10
2019-04-21T00:12:48.941Z,11.30
2019-04-21T00:13:46.737Z,14.00
2019-04-21T00:14:43.833Z,11.50
2019-04-21T00:15:40.742Z,12.50
2019-04-21T00:16:43.196Z,13.00
2019-04-21T00:17:34.719Z,11.30
2019-04-21T00:18:41.800Z,12.50
2019-04-21T00:19:35.400Z,12.30
2019-04-21T00:20:40.860Z,16.00
2019-04-21T00:21:38.495Z,15.40
2019-04-21T00:22:44.346Z,11.00
2019-04-21T00:23:49.610Z,11.90
2019-04-21T00:24:46.218Z,12.30
2019-04-21T00:25:45.817Z,11.40
2019-04-21T00:26:49.313Z,10.80
2019-04-21T00:27:47.822Z,11.80
2019-04-21T00:28:59.406Z,13.90
2019-04-21T00:29:51.983Z,12.90
2019-04-21T00:30:50.550Z,13.60
2019-04-21T00:31:45.501Z,11.90
2019-04-21T00:32:45.063Z,14.40
2019-04-21T00:33:35.634Z,12.10
2019-04-21T00:34:32.208Z,17.00
2019-04-21T00:35:39.151Z,12.40
2019-04-21T00:36:42.757Z,12.80
2019-04-21T00:37:54.604Z,11.20
2019-04-21T00:39:07.055Z,15.60
2019-04-21T00:40:54.088Z,14.40
2019-04-21T00:41:56.337Z,14.00
2019-04-21T00:42:48.877Z,16.00
2019-04-21T00:43:44.731Z,11.40
2019-04-21T00:44:44.364Z,11.70
2019-04-21T00:45:44.659Z,11.20
2019-04-21T00:46:47.729Z,11.00
2019-04-21T00:47:53.142Z,12.00
2019-04-21T00:48:53.959Z,11.80
2019-04-21T00:49:56.666Z,11.80
2019-04-21T00:51:14.997Z,12.80
2019-04-21T00:52:07.048Z,11.00
2019-04-21T00:53:05.746Z,11.00
2019-04-21T00:54:00.980Z,13.40
2019-04-21T00:55:03.936Z,12.20
2019-04-21T00:55:59.416Z,10.20
2019-04-21T00:56:56.237Z,9.70
2019-04-21T00:57:59.510Z,10.60
2019-04-21T00:58:53.740Z,9.10
2019-04-21T00:59:55.763Z,8.80
2019-04-21T01:00:51.279Z,10.60
2019-04-21T01:01:55.467Z,13.00
2019-04-21T01:02:59.393Z,9.30
2019-04-21T01:03:57.915Z,8.70
2019-04-21T01:05:02.093Z,10.50
2019-04-21T01:06:11.443Z,8.80
2019-04-21T01:06:54.406Z,10.10
2019-04-21T01:07:50.375Z,12.90
2019-04-21T01:08:55.712Z,9.60
2019-04-21T01:09:45.276Z,9.50
2019-04-21T01:10:43.933Z,9.40
2019-04-21T01:11:55.376Z,10.60
2019-04-21T01:12:56.118Z,10.40
2019-04-21T01:13:59.577Z,10.10
2019-04-21T01:14:58.167Z,9.60
2019-04-21T01:15:53.034Z,7.70
2019-04-21T01:16:53.090Z,12.20
2019-04-21T01:17:52.146Z,9.90
2019-04-21T01:18:51.705Z,10.00
2019-04-21T01:19:46.633Z,9.10
2019-04-21T01:20:31.588Z,7.80
2019-04-21T01:21:30.526Z,7.70
2019-04-21T01:22:30.594Z,9.30
2019-04-21T01:23:31.728Z,9.30
2019-04-21T01:24:34.453Z,8.80
2019-04-21T01:25:38.258Z,10.00
2019-04-21T01:26:43.795Z,7.40
2019-04-21T01:27:52.230Z,8.20
2019-04-21T01:28:51.126Z,11.40
2019-04-21T01:29:58.346Z,8.00
2019-04-21T01:30:51.789Z,7.30
2019-04-21T01:31:48.475Z,9.80
2019-04-21T01:32:57.594Z,8.40
2019-04-21T01:33:52.134Z,11.40
2019-04-21T01:34:51.368Z,8.60
2019-04-21T01:35:47.994Z,9.00
2019-04-21T01:36:48.615Z,9.00
2019-04-21T01:38:12.135Z,8.50
2019-04-21T01:38:53.779Z,9.90
2019-04-21T01:39:54.522Z,10.10
2019-04-21T01:40:56.768Z,7.70
2019-04-21T01:41:52.324Z,9.00
2019-04-21T01:42:53.934Z,7.50
2019-04-21T01:43:50.288Z,8.30
2019-04-21T01:44:52.313Z,9.10
2019-04-21T01:45:48.663Z,8.00
2019-04-21T01:46:48.653Z,7.90
2019-04-21T01:47:48.958Z,14.40
2019-04-21T01:48:42.831Z,9.60
2019-04-21T01:49:43.014Z,11.20
2019-04-21T01:50:47.043Z,9.20
2019-04-21T01:52:03.255Z,7.30
2019-04-21T01:53:12.667Z,10.50
2019-04-21T01:54:01.317Z,7.50
2019-04-21T01:54:55.825Z,9.60
2019-04-21T01:55:54.220Z,7.60
2019-04-21T01:56:51.415Z,8.10
2019-04-21T01:57:49.426Z,9.00
2019-04-21T01:58:42.809Z,10.30
2019-04-21T01:59:42.564Z,10.00
2019-04-21T02:00:43.887Z,8.40
2019-04-21T02:01:56.363Z,7.50
2019-04-21T02:02:57.793Z,10.00
2019-04-21T02:03:56.845Z,12.20
2019-04-21T02:05:01.199Z,9.70
2019-04-21T02:06:00.025Z,10.00
2019-04-21T02:06:50.226Z,10.20
2019-04-21T02:07:50.127Z,9.90
2019-04-21T02:08:49.088Z,11.40
2019-04-21T02:09:50.923Z,11.70
2019-04-21T02:10:57.528Z,9.10
2019-04-21T02:11:55.084Z,9.60
2019-04-21T02:12:52.546Z,9.00
2019-04-21T02:13:57.695Z,9.40
2019-04-21T02:14:58.202Z,10.20
2019-04-21T02:15:55.816Z,10.10
2019-04-21T02:16:52.057Z,8.80
2019-04-21T02:17:53.790Z,10.00
2019-04-21T02:18:52.926Z,9.20
2019-04-21T02:19:48.056Z,9.60
2019-04-21T02:20:43.569Z,11.20
2019-04-21T02:21:43.654Z,11.30
2019-04-21T02:23:07.358Z,11.60
2019-04-21T02:24:58.388Z,12.30
2019-04-21T02:25:51.075Z,13.60
2019-04-21T02:26:54.294Z,11.30
2019-04-21T02:28:01.249Z,11.60
2019-04-21T02:28:55.583Z,12.20
2019-04-21T02:29:55.978Z,9.80
2019-04-21T02:31:05.336Z,10.70
2019-04-21T02:32:01.971Z,11.40
2019-04-21T02:34:00.281Z,14.20
2019-04-21T02:35:12.346Z,10.00
2019-04-21T02:36:15.402Z,11.10
2019-04-21T02:37:17.206Z,10.90
2019-04-21T02:39:12.298Z,9.80
2019-04-21T02:40:04.218Z,13.50
2019-04-21T02:44:59.896Z,11.40
2019-04-21T02:46:10.520Z,12.00
2019-04-21T02:48:03.976Z,17.10
2019-04-21T02:49:06.037Z,11.10
2019-04-21T02:50:22.333Z,12.20
2019-04-21T02:51:00.332Z,11.20
2019-04-21T02:52:01.227Z,9.20
2019-04-21T02:53:09.555Z,13.30
2019-04-21T02:54:38.486Z,12.60
2019-04-21T02:55:02.285Z,11.10
2019-04-21T02:56:00.665Z,9.90
2019-04-21T02:57:08.560Z,13.50
2019-04-21T02:59:02.425Z,11.30
2019-04-21T03:01:03.261Z,9.10
2019-04-21T03:02:03.587Z,7.90
2019-04-21T03:03:58.801Z,8.50
2019-04-21T03:05:01.790Z,10.40
2019-04-21T03:06:02.634Z,11.00
2019-04-21T03:07:11.430Z,8.30
2019-04-21T03:09:15.970Z,10.50
2019-04-21T03:10:04.834Z,10.90
2019-04-21T03:13:05.006Z,9.80
2019-04-21T03:14:05.544Z,12.80
2019-04-21T03:15:03.681Z,10.30
2019-04-21T03:16:13.711Z,9.50
2019-04-21T03:16:57.698Z,14.30
2019-04-21T03:18:06.523Z,10.10
2019-04-21T03:19:04.916Z,9.10
2019-04-21T03:21:09.331Z,9.50
2019-04-21T03:22:07.132Z,8.90
2019-04-21T03:23:15.790Z,9.60
2019-04-21T03:24:01.225Z,8.80
2019-04-21T03:25:23.462Z,12.30
2019-04-21T03:27:12.121Z,9.20
2019-04-21T03:29:03.630Z,8.70
2019-04-21T03:29:59.312Z,13.40
2019-04-21T03:31:19.699Z,8.30
2019-04-21T03:32:39.024Z,9.10
2019-04-21T03:33:45.452Z,8.30
2019-04-21T03:35:37.884Z,10.20
2019-04-21T03:38:59.150Z,10.60
2019-04-21T03:39:59.837Z,11.90
2019-04-21T03:40:57.342Z,12.00
2019-04-21T03:42:07.051Z,10.40
2019-04-21T03:43:14.489Z,10.30
2019-04-21T03:43:58.922Z,10.70
2019-04-21T03:45:03.724Z,9.20
2019-04-21T03:46:01.844Z,11.20
2019-04-21T03:48:05.110Z,9.70
2019-04-21T03:49:02.233Z,14.50
2019-04-21T03:50:05.035Z,11.10
2019-04-21T03:50:58.921Z,11.90
2019-04-21T03:52:03.208Z,9.70
2019-04-21T03:53:02.749Z,10.00
2019-04-21T03:54:00.677Z,12.30
2019-04-21T03:55:25.210Z,9.70
2019-04-21T03:57:11.267Z,8.90
2019-04-21T04:00:08.921Z,11.80
2019-04-21T04:03:28.222Z,11.70
2019-04-21T04:05:05.667Z,16.00
2019-04-21T04:05:08.961Z,8.60
2019-04-21T04:07:28.863Z,8.60
2019-04-21T04:08:28.683Z,9.90
2019-04-21T04:09:19.371Z,11.20
2019-04-21T04:11:19.637Z,9.20
2019-04-21T04:11:54.724Z,9.70
2019-04-21T04:13:00.817Z,9.70
2019-04-21T04:14:05.457Z,9.80
2019-04-21T04:17:07.535Z,10.60
2019-04-21T04:17:54.270Z,10.20
2019-04-21T04:18:57.994Z,11.00
2019-04-21T04:21:03.050Z,11.50
2019-04-21T04:22:04.338Z,10.20
2019-04-21T04:23:02.929Z,11.10
2019-04-21T04:24:04.027Z,12.10
2019-04-21T04:26:02.325Z,9.10
2019-04-21T04:28:09.920Z,11.00
2019-04-21T04:29:05.959Z,9.70
2019-04-21T04:29:59.054Z,9.10
2019-04-21T04:31:06.512Z,10.10
2019-04-21T04:31:56.940Z,9.50
2019-04-21T04:32:57.392Z,8.70
2019-04-21T04:35:03.869Z,10.20
2019-04-21T04:36:13.095Z,9.80
2019-04-21T04:37:06.914Z,9.40
2019-04-21T04:38:00.939Z,9.30
2019-04-21T04:39:14.465Z,8.10
2019-04-21T04:40:13.384Z,7.80
2019-04-21T04:41:06.219Z,8.70
2019-04-21T04:42:18.225Z,9.50
2019-04-21T04:43:08.325Z,8.00
2019-04-21T04:44:07.083Z,11.30
2019-04-21T04:45:58.976Z,15.20
2019-04-21T04:47:04.557Z,10.40
2019-04-21T04:47:59.896Z,10.60
2019-04-21T04:49:06.073Z,10.00
2019-04-21T04:49:51.954Z,10.40
2019-04-21T04:51:01.944Z,11.10
2019-04-21T04:52:51.253Z,8.30
2019-04-21T04:54:21.811Z,11.90
2019-04-21T04:57:08.498Z,8.90
2019-04-21T04:59:22.653Z,8.10
2019-04-21T05:01:08.213Z,9.40
2019-04-21T05:02:56.305Z,8.40
2019-04-21T05:05:07.064Z,11.00
2019-04-21T05:06:10.058Z,8.50
2019-04-21T05:06:58.443Z,8.90
2019-04-21T05:08:23.970Z,10.90
2019-04-21T05:11:07.690Z,9.60
2019-04-21T05:11:55.878Z,8.10
2019-04-21T05:12:58.650Z,10.20
2019-04-21T05:15:06.427Z,7.80
2019-04-21T05:16:03.528Z,8.80
2019-04-21T05:17:57.717Z,10.20
2019-04-21T05:19:10.152Z,8.60
2019-04-21T05:21:07.472Z,7.70
2019-04-21T05:21:58.793Z,7.70
2019-04-21T05:22:53.897Z,8.30
2019-04-21T05:23:48.494Z,8.00
2019-04-21T05:24:48.309Z,9.10
2019-04-21T05:25:41.632Z,9.50
2019-04-21T05:26:49.078Z,8.10
2019-04-21T05:27:43.320Z,7.80
2019-04-21T05:28:40.691Z,10.80
2019-04-21T05:29:55.535Z,8.50
2019-04-21T05:31:00.495Z,9.50
2019-04-21T05:31:58.447Z,9.30
2019-04-21T05:32:52.780Z,10.00
2019-04-21T05:33:54.305Z,9.40
2019-04-21T05:34:50.793Z,8.50
2019-04-21T05:35:50.699Z,11.60
2019-04-21T05:36:53.927Z,8.50
2019-04-21T05:37:47.612Z,7.10
2019-04-21T05:38:47.755Z,8.90
2019-04-21T05:39:45.163Z,8.20
2019-04-21T05:40:40.190Z,11.40
2019-04-21T05:41:41.013Z,10.00
2019-04-21T05:42:45.893Z,8.80
2019-04-21T05:43:54.579Z,9.00
2019-04-21T05:44:58.138Z,9.30
2019-04-21T05:45:56.748Z,10.30
2019-04-21T05:47:05.542Z,8.30
2019-04-21T05:47:57.897Z,9.60
2019-04-21T05:48:52.174Z,8.50
2019-04-21T05:49:51.285Z,10.60
2019-04-21T05:50:52.176Z,7.90
2019-04-21T05:51:44.280Z,8.90
2019-04-21T05:52:44.970Z,9.50
2019-04-21T05:53:49.233Z,8.50
2019-04-21T05:54:57.427Z,8.20
2019-04-21T05:55:56.922Z,9.50
2019-04-21T05:56:49.837Z,9.10
2019-04-21T05:57:48.120Z,8.80
2019-04-21T05:58:54.079Z,12.30
2019-04-21T05:59:51.595Z,9.90
2019-04-21T06:02:02.575Z,12.30
2019-04-21T06:02:55.225Z,8.50
2019-04-21T06:07:02.090Z,10.30
2019-04-21T06:07:48.212Z,10.50
2019-04-21T06:08:48.120Z,10.50
2019-04-21T06:09:55.418Z,9.00
2019-04-21T06:10:58.818Z,9.50
2019-04-21T06:11:51.601Z,9.70
2019-04-21T06:12:51.060Z,12.20
2019-04-21T06:13:55.525Z,8.60
2019-04-21T06:14:54.561Z,10.80
2019-04-21T06:15:57.956Z,10.60
2019-04-21T06:16:55.560Z,9.30
2019-04-21T06:17:49.271Z,9.90
2019-04-21T06:18:53.157Z,10.60
2019-04-21T06:19:56.937Z,10.40
2019-04-21T06:20:54.700Z,7.60
2019-04-21T06:21:50.842Z,11.10
2019-04-21T06:22:52.020Z,10.10
2019-04-21T06:23:49.715Z,7.70
2019-04-21T06:25:15.237Z,11.50
2019-04-21T06:26:18.036Z,8.40
2019-04-21T06:27:00.358Z,10.40
2019-04-21T06:27:52.192Z,13.30
2019-04-21T06:28:51.815Z,8.70
2019-04-21T06:29:52.812Z,7.20
2019-04-21T06:30:59.446Z,8.50
2019-04-21T06:32:17.341Z,9.50
2019-04-21T06:32:50.872Z,9.00
2019-04-21T06:34:04.930Z,7.40
2019-04-21T06:35:07.347Z,8.80
2019-04-21T06:36:11.412Z,8.90
2019-04-21T06:37:49.422Z,7.90
2019-04-21T06:39:00.035Z,7.30
2019-04-21T06:40:01.894Z,7.30
2019-04-21T06:40:55.995Z,9.30
2019-04-21T06:41:49.137Z,7.50
2019-04-21T06:43:07.932Z,6.70
2019-04-21T06:43:56.303Z,8.00
2019-04-21T06:46:12.324Z,8.30
2019-04-21T06:47:05.950Z,8.10
2019-04-21T06:47:50.168Z,6.30
2019-04-21T06:48:55.728Z,8.40
2019-04-21T06:49:50.970Z,5.20
2019-04-21T06:50:52.950Z,5.70
2019-04-21T06:51:48.352Z,6.30
2019-04-21T06:53:59.584Z,8.50
2019-04-21T06:54:56.032Z,5.80
2019-04-21T06:55:57.424Z,6.20
2019-04-21T06:57:04.873Z,6.80
2019-04-21T06:57:55.802Z,7.30
2019-04-21T06:58:51.564Z,5.20
2019-04-21T06:59:43.103Z,6.30
2019-04-21T07:00:47.668Z,11.90
2019-04-21T07:01:52.720Z,5.80
2019-04-21T07:02:52.831Z,8.00
2019-04-21T07:04:03.097Z,6.00
2019-04-21T07:06:00.400Z,4.80
2019-04-21T07:08:08.403Z,7.70
2019-04-21T07:09:52.879Z,6.40
2019-04-21T07:10:52.084Z,7.40
2019-04-21T07:11:52.647Z,5.90
2019-04-21T07:12:45.001Z,7.30
2019-04-21T07:13:44.589Z,5.00
2019-04-21T07:14:51.029Z,6.40
2019-04-21T07:15:50.139Z,7.30
2019-04-21T07:16:59.585Z,6.70
2019-04-21T07:17:49.987Z,6.50
2019-04-21T07:19:00.060Z,8.00
2019-04-21T07:20:07.409Z,7.90
2019-04-21T07:20:50.446Z,8.20
2019-04-21T07:21:54.336Z,7.30
2019-04-21T07:22:50.986Z,5.80
2019-04-21T07:23:53.822Z,7.20
2019-04-21T07:24:48.209Z,6.80
2019-04-21T07:25:51.969Z,6.10
2019-04-21T07:26:52.681Z,6.80
2019-04-21T07:27:52.045Z,8.50
2019-04-21T07:28:56.964Z,6.40
2019-04-21T07:29:56.660Z,8.10
2019-04-21T07:30:54.605Z,6.90
2019-04-21T07:32:00.284Z,7.40
2019-04-21T07:32:58.016Z,12.20
2019-04-21T07:34:51.173Z,6.10
2019-04-21T07:35:51.753Z,6.50
2019-04-21T07:37:52.300Z,5.80
2019-04-21T07:38:45.457Z,7.60
2019-04-21T07:39:45.181Z,7.20
2019-04-21T07:40:42.902Z,6.00
2019-04-21T07:41:46.932Z,6.50
2019-04-21T07:42:47.039Z,6.70
2019-04-21T07:43:47.280Z,7.60
2019-04-21T07:44:44.728Z,7.50
2019-04-21T07:45:40.562Z,6.80
2019-04-21T07:46:41.720Z,5.80
2019-04-21T07:47:53.467Z,7.60
2019-04-21T07:48:52.032Z,6.90
2019-04-21T07:49:53.168Z,7.80
2019-04-21T07:50:48.799Z,7.60
2019-04-21T07:51:50.997Z,17.80
2019-04-21T07:52:53.400Z,8.10
2019-04-21T07:53:55.973Z,6.40
2019-04-21T07:54:57.200Z,7.20
2019-04-21T07:56:33.204Z,7.40
2019-04-21T07:58:02.717Z,8.00
2019-04-21T07:58:54.199Z,6.50
2019-04-21T08:00:01.204Z,7.30
2019-04-21T08:00:51.170Z,6.10
2019-04-21T08:01:50.723Z,6.50
2019-04-21T08:02:52.386Z,7.30
2019-04-21T08:03:45.389Z,9.40
2019-04-21T08:05:07.659Z,8.80
2019-04-21T08:05:53.012Z,10.00
2019-04-21T08:06:49.429Z,9.90
2019-04-21T08:07:51.886Z,8.80
2019-04-21T08:08:51.072Z,7.00
2019-04-21T08:09:47.263Z,10.00
2019-04-21T08:10:47.142Z,7.80
2019-04-21T08:11:41.614Z,8.10
2019-04-21T08:12:43.205Z,8.20
2019-04-21T08:13:48.535Z,8.10
2019-04-21T08:14:55.863Z,9.60
2019-04-21T08:15:51.279Z,7.60
2019-04-21T08:16:52.450Z,8.40
2019-04-21T08:17:47.180Z,7.50
2019-04-21T08:18:47.432Z,8.80
2019-04-21T08:19:43.032Z,9.20
2019-04-21T08:20:41.910Z,11.00
2019-04-21T08:21:54.625Z,10.40
2019-04-21T08:24:00.205Z,10.90
2019-04-21T08:24:50.329Z,10.50
2019-04-21T08:25:56.235Z,10.00
2019-04-21T08:26:51.007Z,8.60
2019-04-21T08:27:55.467Z,9.40
2019-04-21T08:28:49.451Z,10.30
2019-04-21T08:29:46.230Z,10.50
2019-04-21T08:30:44.402Z,10.90
2019-04-21T08:34:54.881Z,10.10
2019-04-21T08:36:44.730Z,9.80
2019-04-21T08:37:42.967Z,12.00
2019-04-21T08:38:51.541Z,11.80
2019-04-21T08:39:58.098Z,12.50
2019-04-21T08:41:04.893Z,10.60
2019-04-21T08:41:44.040Z,10.90
2019-04-21T08:42:47.751Z,10.30
2019-04-21T08:43:44.676Z,11.00
2019-04-21T08:44:46.879Z,10.80
2019-04-21T08:45:48.223Z,10.60
2019-04-21T08:46:48.079Z,12.20
2019-04-21T08:47:45.763Z,8.60
2019-04-21T08:48:52.592Z,10.70
2019-04-21T08:49:48.049Z,8.40
2019-04-21T08:50:44.149Z,7.90
2019-04-21T08:51:50.475Z,7.80
2019-04-21T08:52:50.679Z,9.10
2019-04-21T08:53:53.558Z,8.50
2019-04-21T08:54:52.123Z,8.20
2019-04-21T08:55:49.313Z,8.90
2019-04-21T08:56:49.605Z,8.40
2019-04-21T08:57:52.667Z,11.10
2019-04-21T08:58:52.162Z,10.50
2019-04-21T09:00:51.420Z,8.00
2019-04-21T09:01:50.781Z,8.90
2019-04-21T09:02:48.655Z,8.00
2019-04-21T09:03:53.936Z,7.40
2019-04-21T09:04:50.715Z,11.80
2019-04-21T09:05:45.648Z,8.90
2019-04-21T09:07:49.308Z,8.90
2019-04-21T09:08:46.155Z,10.20
2019-04-21T09:09:47.506Z,8.30
2019-04-21T09:10:47.385Z,10.40
2019-04-21T09:11:49.886Z,10.20
2019-04-21T09:12:49.938Z,8.50
2019-04-21T09:13:44.582Z,10.50
2019-04-21T09:14:41.520Z,9.20
2019-04-21T09:15:41.903Z,9.00
2019-04-21T09:16:44.006Z,8.30
2019-04-21T09:17:37.743Z,8.90
2019-04-21T09:18:42.100Z,10.10
2019-04-21T09:19:51.461Z,10.00
2019-04-21T09:22:41.305Z,7.90
2019-04-21T09:23:45.232Z,8.90
2019-04-21T09:24:45.660Z,9.10
2019-04-21T09:25:46.465Z,8.40
2019-04-21T09:26:41.329Z,10.40
2019-04-21T09:27:41.950Z,8.40
2019-04-21T09:28:39.592Z,8.70
2019-04-21T09:29:36.079Z,9.50
2019-04-21T09:30:26.430Z,8.90
2019-04-21T09:31:30.957Z,11.40
2019-04-21T09:32:29.398Z,8.30
2019-04-21T09:33:34.564Z,9.00
2019-04-21T09:34:33.192Z,9.80
2019-04-21T09:35:27.073Z,11.30
2019-04-21T09:36:33.640Z,9.70
2019-04-21T09:37:39.300Z,9.10
2019-04-21T09:38:33.838Z,9.90
2019-04-21T09:39:29.501Z,8.80
2019-04-21T09:40:32.724Z,7.70
2019-04-21T09:41:27.871Z,9.00
2019-04-21T09:42:32.324Z,9.40
2019-04-21T09:43:35.693Z,8.60
2019-04-21T09:44:31.451Z,9.40
2019-04-21T09:45:26.544Z,10.40
2019-04-21T09:46:25.422Z,9.90
2019-04-21T09:47:35.140Z,10.10
2019-04-21T09:48:26.728Z,7.80
2019-04-21T09:49:27.899Z,7.90
2019-04-21T09:50:26.579Z,9.90
2019-04-21T09:51:25.869Z,7.90
2019-04-21T09:52:30.137Z,8.00
2019-04-21T09:53:32.823Z,8.10
2019-04-21T09:54:31.141Z,8.10
2019-04-21T09:56:45.652Z,9.50
2019-04-21T09:57:43.115Z,8.90
2019-04-21T09:58:40.839Z,10.10
2019-04-21T09:59:40.105Z,9.80
2019-04-21T10:00:45.740Z,9.30
2019-04-21T10:01:49.069Z,9.40
2019-04-21T10:02:42.912Z,11.50
2019-04-21T10:03:41.226Z,11.20
2019-04-21T10:04:35.794Z,11.20
2019-04-21T10:05:36.012Z,9.90
2019-04-21T10:06:35.028Z,8.60
2019-04-21T10:07:39.122Z,9.30
2019-04-21T10:08:36.402Z,10.70
2019-04-21T10:09:35.565Z,9.10
2019-04-21T10:10:34.731Z,8.30
2019-04-21T10:11:35.529Z,8.70
2019-04-21T10:12:35.083Z,7.60
2019-04-21T10:13:36.086Z,8.00
2019-04-21T10:14:34.694Z,9.70
2019-04-21T10:15:35.518Z,7.40
2019-04-21T10:16:34.663Z,9.20
2019-04-21T10:17:35.033Z,8.00
2019-04-21T10:18:35.760Z,7.70
2019-04-21T10:19:34.646Z,7.70
2019-04-21T10:20:34.625Z,11.00
2019-04-21T10:21:35.977Z,7.70
2019-04-21T10:22:35.080Z,7.20
2019-04-21T10:23:35.794Z,10.20
2019-04-21T10:24:34.591Z,9.60
2019-04-21T10:25:34.625Z,7.40
2019-04-21T10:26:35.581Z,7.50
2019-04-21T10:27:34.915Z,7.70
2019-04-21T10:28:35.116Z,7.80
2019-04-21T10:29:35.808Z,9.30
2019-04-21T10:30:36.405Z,9.20
2019-04-21T10:31:34.680Z,8.20
2019-04-21T10:32:34.590Z,10.60
2019-04-21T10:33:34.592Z,10.40
2019-04-21T10:34:34.846Z,10.70
2019-04-21T10:35:35.259Z,10.60
2019-04-21T10:36:35.107Z,7.60
2019-04-21T10:37:45.537Z,8.50
2019-04-21T10:38:40.795Z,7.80
2019-04-21T10:39:35.719Z,9.20
2019-04-21T10:40:37.149Z,7.70
2019-04-21T10:41:35.123Z,8.30
2019-04-21T10:42:35.459Z,9.20
2019-04-21T10:43:35.605Z,10.90
2019-04-21T10:44:34.720Z,8.60
2019-04-21T10:45:34.905Z,8.90
2019-04-21T10:46:35.023Z,7.80
2019-04-21T10:47:34.642Z,8.70
2019-04-21T10:48:35.994Z,9.70
2019-04-21T10:49:34.936Z,8.70
2019-04-21T10:50:34.830Z,10.50
2019-04-21T10:51:35.173Z,8.30
2019-04-21T10:52:35.878Z,8.80
2019-04-21T10:53:34.543Z,8.40
2019-04-21T10:54:49.387Z,7.20
2019-04-21T10:55:50.551Z,6.80
2019-04-21T10:56:41.125Z,8.60
2019-04-21T10:57:35.288Z,7.70
2019-04-21T10:58:34.270Z,6.40
2019-04-21T10:59:35.319Z,6.00
2019-04-21T11:00:34.462Z,6.70
2019-04-21T11:01:34.733Z,6.30
2019-04-21T11:02:34.862Z,8.90
2019-04-21T11:03:35.257Z,6.30
2019-04-21T11:04:37.385Z,10.90
2019-04-21T11:05:34.522Z,6.50
2019-04-21T11:06:34.738Z,8.00
2019-04-21T11:07:45.409Z,7.30
2019-04-21T11:08:39.606Z,7.10
2019-04-21T11:09:36.126Z,5.50
2019-04-21T11:10:34.134Z,7.70
2019-04-21T11:11:34.238Z,9.70
2019-04-21T11:12:36.498Z,6.30
2019-04-21T11:13:34.756Z,6.00
2019-04-21T11:14:35.488Z,7.90
2019-04-21T11:15:35.043Z,5.80
2019-04-21T11:16:35.175Z,7.40
2019-04-21T11:17:34.234Z,7.60
2019-04-21T11:18:34.095Z,7.50
2019-04-21T11:19:34.877Z,5.80
2019-04-21T11:20:35.121Z,6.50
2019-04-21T11:21:34.644Z,5.40
2019-04-21T11:22:35.272Z,6.40
2019-04-21T11:23:35.224Z,7.70
2019-04-21T11:24:35.093Z,5.70
2019-04-21T11:25:33.985Z,4.80
2019-04-21T11:26:33.968Z,5.20
2019-04-21T11:27:35.115Z,6.10
2019-04-21T11:28:34.610Z,7.20
2019-04-21T11:29:35.057Z,5.60
2019-04-21T11:30:33.930Z,5.30
2019-04-21T11:31:33.982Z,6.80
2019-04-21T11:32:35.060Z,5.80
2019-04-21T11:33:35.469Z,6.50
2019-04-21T11:34:33.893Z,5.40
2019-04-21T11:35:35.145Z,6.20
2019-04-21T11:36:35.020Z,7.00
2019-04-21T11:37:34.613Z,7.30
2019-04-21T11:38:51.336Z,6.90
2019-04-21T11:39:44.603Z,5.90
2019-04-21T11:40:36.027Z,5.70
2019-04-21T11:41:34.120Z,5.80
2019-04-21T11:42:33.804Z,5.50
2019-04-21T11:43:34.979Z,5.40
2019-04-21T11:44:35.201Z,6.40
2019-04-21T11:45:34.711Z,5.80
2019-04-21T11:46:34.248Z,6.30
2019-04-21T11:47:34.245Z,6.50
2019-04-21T11:48:34.518Z,5.90
2019-04-21T11:49:34.849Z,6.30
2019-04-21T11:50:34.990Z,7.20
2019-04-21T11:51:33.717Z,6.50
2019-04-21T11:52:34.723Z,5.30
2019-04-21T11:53:34.837Z,5.80
2019-04-21T11:54:34.963Z,6.90
2019-04-21T11:55:38.259Z,5.50
2019-04-21T11:56:34.841Z,7.30
2019-04-21T11:57:39.241Z,5.20
2019-04-21T11:58:35.969Z,6.30
2019-04-21T11:59:33.653Z,7.00
2019-04-21T12:00:33.654Z,5.90
2019-04-21T12:01:33.825Z,5.90
2019-04-21T12:02:33.699Z,6.20
2019-04-21T12:03:33.719Z,4.50
2019-04-21T12:04:33.717Z,5.10
2019-04-21T12:05:33.580Z,6.00
2019-04-21T12:06:39.608Z,12.10
2019-04-21T12:07:35.359Z,4.50
2019-04-21T12:08:40.393Z,5.00
2019-04-21T12:09:35.417Z,4.10
2019-04-21T12:10:33.532Z,5.30
2019-04-21T12:11:33.717Z,5.20
2019-04-21T12:12:33.504Z,4.10
2019-04-21T12:13:34.231Z,5.30
2019-04-21T12:14:34.203Z,4.20
2019-04-21T12:15:34.580Z,4.50
2019-04-21T12:16:34.984Z,7.10
2019-04-21T12:17:34.139Z,5.20
2019-04-21T12:18:34.008Z,4.80
2019-04-21T12:19:34.613Z,4.60
2019-04-21T12:20:33.493Z,5.40
2019-04-21T12:21:47.904Z,4.40
2019-04-21T12:22:35.736Z,4.70
2019-04-21T12:23:34.375Z,5.20
2019-04-21T12:24:34.607Z,6.30
2019-04-21T12:25:33.384Z,5.10
2019-04-21T12:26:33.858Z,3.90
2019-04-21T12:27:33.969Z,4.60
2019-04-21T12:28:34.252Z,3.90
2019-04-21T12:29:33.587Z,4.30
2019-04-21T12:30:33.637Z,5.00
2019-04-21T12:31:33.744Z,5.70
2019-04-21T12:32:33.833Z,4.50
2019-04-21T12:33:34.134Z,3.80
2019-04-21T12:34:34.273Z,4.10
2019-04-21T12:35:33.571Z,5.40
2019-04-21T12:36:33.843Z,4.00
2019-04-21T12:37:33.262Z,3.40
2019-04-21T12:38:42.666Z,4.80
2019-04-21T12:39:34.776Z,4.70
2019-04-21T12:40:34.593Z,3.90
2019-04-21T12:41:33.223Z,4.60
2019-04-21T12:42:34.462Z,3.70
2019-04-21T12:43:33.192Z,5.50
2019-04-21T12:44:33.596Z,4.70
2019-04-21T12:45:33.699Z,4.70
2019-04-21T12:46:33.958Z,4.70
2019-04-21T12:47:34.100Z,4.20
2019-04-21T12:48:33.803Z,3.80
2019-04-21T12:49:33.845Z,3.60
2019-04-21T12:50:34.068Z,4.40
2019-04-21T12:51:33.730Z,4.80
2019-04-21T12:52:33.597Z,4.40
2019-04-21T12:53:34.027Z,5.70
2019-04-21T12:54:33.381Z,3.80
2019-04-21T12:55:38.396Z,3.60
2019-04-21T12:56:34.056Z,4.60
2019-04-21T12:57:33.331Z,3.80
2019-04-21T12:58:33.218Z,4.10
2019-04-21T12:59:34.557Z,5.40
2019-04-21T13:00:33.361Z,4.60
2019-04-21T13:01:33.018Z,4.60
2019-04-21T13:02:33.821Z,5.50
2019-04-21T13:03:34.086Z,5.00
2019-04-21T13:04:33.555Z,6.60
2019-04-21T13:05:33.788Z,5.90
2019-04-21T13:06:33.872Z,3.80
2019-04-21T13:07:33.208Z,5.30
2019-04-21T13:08:45.551Z,3.90
2019-04-21T13:09:35.690Z,4.40
2019-04-21T13:10:33.966Z,6.20
2019-04-21T13:11:33.204Z,4.80
2019-04-21T13:12:33.259Z,6.80
2019-04-21T13:13:32.902Z,4.30
2019-04-21T13:14:33.737Z,5.20
2019-04-21T13:15:33.653Z,5.70
2019-04-21T13:16:41.164Z,3.70
2019-04-21T13:17:47.828Z,3.70
2019-04-21T13:18:33.259Z,4.90
2019-04-21T13:19:33.515Z,5.20
2019-04-21T13:20:33.982Z,4.60
2019-04-21T13:21:34.060Z,4.60
2019-04-21T13:22:34.141Z,4.00
2019-04-21T13:23:32.808Z,5.40
2019-04-21T13:24:33.680Z,5.00
2019-04-21T13:25:33.902Z,4.20
2019-04-21T13:26:42.755Z,4.60
2019-04-21T13:27:34.574Z,5.00
2019-04-21T13:28:32.821Z,4.90
2019-04-21T13:29:32.741Z,4.90
2019-04-21T13:30:32.738Z,4.60
2019-04-21T13:31:34.121Z,4.20
2019-04-21T13:32:33.166Z,4.40
2019-04-21T13:33:33.635Z,5.50
2019-04-21T13:34:33.760Z,6.60
2019-04-21T13:35:33.141Z,3.90
2019-04-21T13:36:33.772Z,4.30
2019-04-21T13:37:33.236Z,3.90
2019-04-21T13:38:38.784Z,3.40
2019-04-21T13:39:57.213Z,3.80
2019-04-21T13:40:51.772Z,4.60
2019-04-21T13:41:47.480Z,4.10
2019-04-21T13:42:39.896Z,4.20
2019-04-21T13:43:34.946Z,4.00
2019-04-21T13:44:33.057Z,3.90
2019-04-21T13:45:34.185Z,5.00
2019-04-21T13:46:32.676Z,5.00
2019-04-21T13:47:32.649Z,3.50
2019-04-21T13:48:32.797Z,4.70
2019-04-21T13:49:32.615Z,5.10
2019-04-21T13:50:33.250Z,3.70
2019-04-21T13:51:34.002Z,4.00
2019-04-21T13:52:33.203Z,6.50
2019-04-21T13:53:33.056Z,4.40
2019-04-21T13:54:33.677Z,4.40
2019-04-21T13:55:36.683Z,5.60
2019-04-21T13:56:32.528Z,3.60
2019-04-21T13:57:32.538Z,4.10
2019-04-21T13:58:32.711Z,4.20
2019-04-21T13:59:32.457Z,3.40
2019-04-21T14:00:33.470Z,6.00
2019-04-21T14:01:33.852Z,4.60
2019-04-21T14:02:32.409Z,5.40
2019-04-21T14:03:33.397Z,4.10
2019-04-21T14:04:33.639Z,5.10
2019-04-21T14:05:32.758Z,4.70
2019-04-21T14:06:32.422Z,3.60
2019-04-21T14:07:32.393Z,4.50
2019-04-21T14:08:33.476Z,3.90
2019-04-21T14:09:40.048Z,6.30
2019-04-21T14:10:33.531Z,3.40
2019-04-21T14:11:33.281Z,4.00
2019-04-21T14:12:32.314Z,3.70
2019-04-21T14:13:32.337Z,3.90
2019-04-21T14:14:32.342Z,3.60
2019-04-21T14:15:32.452Z,4.10
2019-04-21T14:16:32.275Z,4.50
2019-04-21T14:17:32.859Z,3.80
2019-04-21T14:18:32.910Z,3.90
2019-04-21T14:19:33.222Z,4.20
2019-04-21T14:20:33.279Z,4.00
2019-04-21T14:21:33.671Z,3.50
2019-04-21T14:22:32.266Z,6.30